Time;durP1;ratioP1;P1;durP2;ratioP2;P2;SDS_P1;SDS_P2;PMS_P1;PMS_P2;Temp;Humidity;BMP_temperature;BMP_pressure;BME280_temperature;BME280_humidity;BME280_pressure;Samples;Min_cycle;Max_cycle;Signal;HPM_P1;HPM_P2
2020/12/30 00:00:11;;;;;;;17.42;8.82;;;;;;;2.44;57.95;99232.00;5009894;28;20044;-74
2020/12/30 00:02:39;;;;;;;19.40;8.57;;;;;;;2.89;56.38;99233.94;5028083;28;20102;-75
2020/12/30 00:05:07;;;;;;;20.77;9.60;;;;;;;2.80;57.06;99232.53;5028479;28;20481;-72
2020/12/30 00:07:34;;;;;;;24.77;10.43;;;;;;;2.27;58.44;99230.81;5025721;28;20049;-74
2020/12/30 00:10:00;;;;;;;17.98;8.50;;;;;;;1.82;59.97;99228.78;5041070;28;20048;-73
2020/12/30 00:12:28;;;;;;;23.13;9.80;;;;;;;1.92;59.86;99230.16;5023873;28;20091;-73
2020/12/30 00:15:00;;;;;;;22.73;9.82;;;;;;;1.41;60.60;99228.25;5028031;28;20106;-73
2020/12/30 00:17:26;;;;;;;26.40;11.13;;;;;;;2.31;58.30;99221.22;5020737;28;20517;-73
2020/12/30 00:19:52;;;;;;;24.95;11.48;;;;;;;2.24;58.33;99225.78;5024402;28;20025;-73
2020/12/30 00:22:18;;;;;;;22.17;11.27;;;;;;;2.09;59.46;99224.50;5027312;28;20037;-74
2020/12/30 00:24:44;;;;;;;21.33;10.90;;;;;;;2.03;59.34;99221.28;5028078;28;20091;-74
2020/12/30 00:27:10;;;;;;;31.50;12.45;;;;;;;2.34;58.61;99226.31;5027099;28;20099;-76
2020/12/30 00:29:35;;;;;;;25.48;11.57;;;;;;;1.76;60.46;99231.53;5025839;28;20045;-74
2020/12/30 00:32:01;;;;;;;27.17;12.05;;;;;;;2.00;59.31;99236.81;5028322;28;20089;-72
2020/12/30 00:34:26;;;;;;;21.30;10.75;;;;;;;1.13;61.82;99233.28;5024916;28;20087;-72
2020/12/30 00:36:52;;;;;;;30.23;11.60;;;;;;;1.54;60.98;99238.19;5021295;28;20534;-72
2020/12/30 00:39:17;;;;;;;29.67;11.68;;;;;;;2.12;59.33;99228.72;5026167;28;20033;-71
2020/12/30 00:41:43;;;;;;;28.98;12.52;;;;;;;2.31;58.52;99236.69;5023939;28;20094;-72
2020/12/30 00:44:09;;;;;;;29.73;13.10;;;;;;;1.39;61.38;99236.88;5027735;28;20037;-72
2020/12/30 00:46:35;;;;;;;29.90;11.88;;;;;;;1.95;59.79;99239.53;5027654;28;20036;-71
2020/12/30 00:49:00;;;;;;;22.05;11.02;;;;;;;2.42;58.39;99239.81;5026365;28;20394;-71
2020/12/30 00:51:26;;;;;;;28.60;12.35;;;;;;;1.79;60.23;99244.31;5025970;28;20120;-71
2020/12/30 00:53:53;;;;;;;31.05;12.15;;;;;;;1.58;60.82;99239.81;5003969;28;20030;-70
2020/12/30 00:56:18;;;;;;;26.70;11.13;;;;;;;1.73;60.53;99250.50;5022015;28;20052;-72
2020/12/30 00:58:44;;;;;;;27.25;12.55;;;;;;;1.98;59.59;99242.03;5026123;28;20045;-71
2020/12/30 01:01:16;;;;;;;24.25;12.05;;;;;;;1.75;60.27;99250.44;5010910;28;20179;-71
2020/12/30 01:04:14;;;;;;;28.73;11.70;;;;;;;1.50;61.33;99250.31;5017705;28;20042;-72
2020/12/30 01:06:39;;;;;;;24.52;12.77;;;;;;;1.56;61.07;99245.00;5026207;28;20052;-72
2020/12/30 01:09:06;;;;;;;26.02;10.82;;;;;;;1.70;60.77;99254.88;5027004;28;20048;-72
2020/12/30 01:11:31;;;;;;;26.75;10.88;;;;;;;1.72;60.62;99247.97;5025138;28;20033;-71
2020/12/30 01:13:58;;;;;;;25.20;10.82;;;;;;;1.89;59.96;99250.88;5026507;28;20383;-73
2020/12/30 01:16:27;;;;;;;27.00;10.77;;;;;;;1.91;60.13;99253.44;5024236;28;20064;-72
2020/12/30 01:18:53;;;;;;;25.00;11.25;;;;;;;1.60;60.65;99259.47;5027105;28;20320;-72
2020/12/30 01:21:18;;;;;;;28.33;11.20;;;;;;;1.72;60.84;99263.41;5026992;28;20152;-72
2020/12/30 01:23:44;;;;;;;23.88;10.93;;;;;;;1.73;60.74;99265.13;5024987;28;20094;-71
2020/12/30 01:26:10;;;;;;;23.67;10.18;;;;;;;1.97;59.75;99273.81;5026537;28;20038;-72
2020/12/30 01:28:36;;;;;;;24.52;10.18;;;;;;;2.38;58.98;99265.72;5026336;28;20128;-73
2020/12/30 01:31:02;;;;;;;25.17;11.07;;;;;;;1.88;60.49;99264.63;5025029;28;20120;-72
2020/12/30 01:33:28;;;;;;;22.52;9.48;;;;;;;2.11;59.19;99260.56;5023737;28;20041;-72
2020/12/30 01:35:53;;;;;;;19.35;9.40;;;;;;;2.44;58.11;99258.63;5025277;28;20032;-72
2020/12/30 01:38:19;;;;;;;18.70;9.10;;;;;;;1.90;59.72;99260.28;5025810;28;20510;-72
2020/12/30 01:43:15;;;;;;;21.17;9.63;;;;;;;2.33;58.71;99253.81;5000490;28;20054;-69
2020/12/30 01:45:40;;;;;;;19.90;9.73;;;;;;;1.99;59.91;99260.91;4975088;28;20091;-69
2020/12/30 01:48:13;;;;;;;19.95;8.73;;;;;;;2.32;58.51;99257.28;4982230;28;20423;-69
2020/12/30 01:50:39;;;;;;;26.55;11.00;;;;;;;2.37;58.52;99261.47;4974625;28;20033;-70
2020/12/30 01:53:06;;;;;;;18.33;7.82;;;;;;;1.95;59.86;99267.88;5001362;28;20022;-69
2020/12/30 01:55:32;;;;;;;15.88;6.53;;;;;;;1.53;61.06;99260.53;4975400;28;20442;-68
2020/12/30 01:57:58;;;;;;;16.95;7.72;;;;;;;1.70;60.42;99265.19;4986088;28;20088;-69
2020/12/30 02:00:23;;;;;;;16.50;7.90;;;;;;;1.87;59.74;99269.84;4987077;28;20026;-69
2020/12/30 02:02:58;;;;;;;19.23;8.57;;;;;;;1.64;60.77;99271.38;4984850;28;20166;-68
2020/12/30 02:05:23;;;;;;;19.45;6.70;;;;;;;1.66;61.12;99279.03;4999310;28;20459;-70
2020/12/30 02:07:50;;;;;;;15.93;7.63;;;;;;;1.64;60.95;99275.66;4975818;28;20026;-69
2020/12/30 02:10:16;;;;;;;12.48;6.43;;;;;;;1.46;61.30;99277.91;4997885;28;20559;-69
2020/12/30 02:12:44;;;;;;;18.63;7.35;;;;;;;1.48;61.25;99293.28;5000945;28;20049;-69
2020/12/30 02:15:22;;;;;;;15.18;6.72;;;;;;;1.44;60.81;99279.66;4999399;28;20030;-69
2020/12/30 02:17:47;;;;;;;12.73;5.82;;;;;;;1.22;61.44;99293.97;4974004;28;20034;-69
2020/12/30 02:20:12;;;;;;;18.25;6.97;;;;;;;1.91;59.47;99294.66;4999658;28;20045;-69
2020/12/30 02:22:38;;;;;;;16.65;6.05;;;;;;;2.01;59.32;99292.63;4998333;28;20037;-69
2020/12/30 02:25:04;;;;;;;9.70;4.93;;;;;;;2.32;58.28;99300.28;4995338;28;20033;-69
2020/12/30 02:27:29;;;;;;;15.40;5.50;;;;;;;1.67;59.73;99302.19;4957053;28;20092;-69
2020/12/30 02:29:54;;;;;;;14.68;6.78;;;;;;;1.85;59.50;99311.13;4960394;28;20048;-69
2020/12/30 02:32:20;;;;;;;11.35;6.28;;;;;;;1.68;60.17;99310.75;4997580;28;20026;-69
2020/12/30 02:34:46;;;;;;;14.98;5.63;;;;;;;1.21;61.06;99307.72;4997895;28;20037;-69
2020/12/30 02:37:11;;;;;;;15.52;5.93;;;;;;;1.67;59.78;99317.63;4980396;28;20594;-69
2020/12/30 02:39:37;;;;;;;12.45;5.47;;;;;;;2.16;58.39;99315.38;4983117;28;20041;-68
2020/12/30 02:42:02;;;;;;;16.45;4.72;;;;;;;1.24;60.94;99310.22;4970496;28;20034;-69
2020/12/30 02:44:28;;;;;;;14.88;6.13;;;;;;;1.67;59.21;99311.66;4997577;28;20035;-69
2020/12/30 02:46:53;;;;;;;11.77;5.18;;;;;;;1.35;60.34;99308.22;4995799;28;20282;-70
2020/12/30 02:49:19;;;;;;;9.45;5.32;;;;;;;1.50;59.87;99307.78;4996963;28;20042;-70
2020/12/30 02:51:45;;;;;;;15.90;5.05;;;;;;;1.75;59.50;99314.84;4994716;28;20049;-71
2020/12/30 02:54:11;;;;;;;14.63;6.18;;;;;;;1.64;59.73;99322.03;4979803;28;20026;-69
2020/12/30 02:56:36;;;;;;;13.02;5.85;;;;;;;1.94;58.89;99317.75;4980807;28;20447;-69
2020/12/30 02:59:03;;;;;;;13.20;6.97;;;;;;;1.47;59.93;99325.91;4977788;28;20030;-69
2020/12/30 03:01:29;;;;;;;11.30;5.07;;;;;;;1.93;58.39;99327.22;4994939;28;20544;-68
2020/12/30 03:03:54;;;;;;;12.10;6.90;;;;;;;1.15;60.68;99324.16;4996017;28;20036;-68
2020/12/30 03:06:24;;;;;;;14.40;6.30;;;;;;;1.30;60.38;99328.06;4995338;28;20038;-69
2020/12/30 03:08:49;;;;;;;11.25;5.22;;;;;;;1.67;58.93;99338.25;4961276;28;20030;-69
2020/12/30 03:11:15;;;;;;;14.43;6.68;;;;;;;1.76;59.21;99337.16;4979772;28;20064;-69
2020/12/30 03:13:40;;;;;;;13.60;5.90;;;;;;;2.22;57.68;99330.66;4995774;28;20030;-70
2020/12/30 03:16:05;;;;;;;15.60;6.93;;;;;;;1.39;60.06;99332.97;4997812;28;20061;-70
2020/12/30 03:18:31;;;;;;;16.55;7.53;;;;;;;1.60;59.54;99328.16;4953752;28;20030;-69
2020/12/30 03:20:56;;;;;;;16.42;7.45;;;;;;;1.74;59.47;99333.75;4960572;28;20350;-70
2020/12/30 03:23:22;;;;;;;17.48;8.13;;;;;;;1.04;61.41;99334.72;4977231;28;20041;-69
2020/12/30 03:25:47;;;;;;;15.00;8.35;;;;;;;1.41;60.48;99325.22;4956193;28;20113;-70
2020/12/30 03:28:13;;;;;;;19.83;8.48;;;;;;;1.46;59.90;99334.53;4991180;28;20044;-69
2020/12/30 03:30:38;;;;;;;15.90;7.10;;;;;;;1.23;60.62;99331.69;4993065;28;20498;-70
2020/12/30 03:33:04;;;;;;;15.23;7.13;;;;;;;1.64;59.48;99332.31;4993923;28;20044;-70
2020/12/30 03:35:29;;;;;;;14.45;7.53;;;;;;;1.82;59.05;99336.09;4984940;28;20046;-69
2020/12/30 03:37:55;;;;;;;19.80;7.40;;;;;;;1.74;59.31;99341.50;4978333;28;20488;-69
2020/12/30 03:40:21;;;;;;;19.00;8.20;;;;;;;1.54;60.20;99342.03;4982785;28;20295;-70
2020/12/30 03:42:47;;;;;;;17.70;8.65;;;;;;;1.38;60.08;99344.16;4977075;28;20039;-69
2020/12/30 03:45:13;;;;;;;19.45;8.25;;;;;;;1.70;59.14;99342.47;4979340;28;20137;-69
2020/12/30 03:47:38;;;;;;;19.17;7.95;;;;;;;0.64;62.28;99338.28;4978612;28;20119;-69
2020/12/30 03:50:04;;;;;;;19.30;8.25;;;;;;;1.42;60.19;99348.38;4958072;28;20039;-69
2020/12/30 03:52:30;;;;;;;17.23;8.90;;;;;;;1.42;59.85;99343.22;4993418;28;20037;-70
2020/12/30 03:54:56;;;;;;;27.05;9.30;;;;;;;1.81;58.91;99337.84;4960111;28;20030;-69
2020/12/30 03:57:21;;;;;;;18.08;8.68;;;;;;;1.09;60.81;99345.75;4955532;28;20035;-69
2020/12/30 03:59:46;;;;;;;20.60;8.77;;;;;;;1.34;60.21;99347.69;4996229;28;20053;-69
2020/12/30 04:02:12;;;;;;;21.13;9.52;;;;;;;1.28;60.20;99341.00;4995445;28;20034;-69
2020/12/30 04:04:38;;;;;;;19.55;9.18;;;;;;;1.55;59.36;99348.03;4958915;28;20042;-70
2020/12/30 04:07:03;;;;;;;21.55;9.43;;;;;;;1.90;58.60;99344.47;4980801;28;20102;-70
2020/12/30 04:09:29;;;;;;;17.88;9.35;;;;;;;1.37;60.24;99345.03;4959491;28;20113;-70
2020/12/30 04:11:54;;;;;;;20.60;9.02;;;;;;;1.90;58.39;99349.63;4998622;28;20037;-69
2020/12/30 04:14:20;;;;;;;18.23;9.88;;;;;;;0.84;61.71;99339.53;4985617;28;20022;-70
2020/12/30 04:16:45;;;;;;;18.63;9.52;;;;;;;1.89;58.73;99343.63;4982712;28;20035;-70
2020/12/30 04:19:11;;;;;;;19.58;9.32;;;;;;;0.95;60.44;99336.66;4984872;28;20072;-70
2020/12/30 04:21:37;;;;;;;22.23;8.82;;;;;;;1.58;58.99;99342.81;5000464;28;20030;-69
2020/12/30 04:24:03;;;;;;;20.67;9.13;;;;;;;1.40;59.70;99350.13;4983945;28;20034;-70
2020/12/30 04:26:28;;;;;;;22.17;10.43;;;;;;;1.23;60.00;99349.69;4999846;28;20395;-71
2020/12/30 04:28:54;;;;;;;20.02;9.68;;;;;;;1.69;58.70;99343.38;4979829;28;20318;-69
2020/12/30 04:31:19;;;;;;;21.10;10.05;;;;;;;1.46;59.76;99347.41;4987436;28;20033;-69
2020/12/30 04:33:46;;;;;;;24.52;11.18;;;;;;;1.69;58.49;99346.78;4998393;28;20049;-69
2020/12/30 04:36:12;;;;;;;21.70;11.05;;;;;;;1.51;59.09;99348.13;4986216;28;20061;-69
2020/12/30 04:38:38;;;;;;;24.83;10.43;;;;;;;1.34;59.62;99352.84;4983827;28;20042;-69
2020/12/30 04:41:07;;;;;;;30.08;10.98;;;;;;;1.24;60.44;99353.97;5000018;28;20055;-69
2020/12/30 04:43:34;;;;;;;25.58;10.50;;;;;;;1.55;58.99;99360.91;4977109;28;20044;-71
2020/12/30 04:46:01;;;;;;;21.58;9.25;;;;;;;1.59;59.00;99359.94;4971461;28;20034;-70
2020/12/30 04:48:27;;;;;;;28.15;10.88;;;;;;;0.72;61.63;99360.38;4991546;28;20026;-70
2020/12/30 04:50:53;;;;;;;21.35;11.02;;;;;;;0.83;61.06;99363.53;4998231;28;20038;-69
2020/12/30 04:53:23;;;;;;;19.85;10.10;;;;;;;1.68;58.84;99364.84;4983142;28;20124;-69
2020/12/30 04:55:50;;;;;;;24.75;11.38;;;;;;;1.42;59.27;99368.13;4984237;28;20030;-69
2020/12/30 04:58:17;;;;;;;22.92;10.73;;;;;;;1.83;58.74;99371.31;4999672;28;20061;-69
2020/12/30 05:00:44;;;;;;;20.98;10.05;;;;;;;1.47;59.68;99377.41;4997339;28;20057;-69
2020/12/30 05:03:10;;;;;;;25.45;10.15;;;;;;;1.70;58.98;99379.34;4980501;28;20121;-70
2020/12/30 05:05:40;;;;;;;26.67;10.85;;;;;;;1.57;59.35;99379.72;4989013;28;20524;-69
2020/12/30 05:08:15;;;;;;;24.27;11.55;;;;;;;1.05;61.20;99389.59;4989346;28;20088;-69
2020/12/30 05:10:45;;;;;;;22.02;9.55;;;;;;;1.15;60.40;99379.91;4998737;28;20332;-70
2020/12/30 05:13:10;;;;;;;29.00;11.88;;;;;;;1.79;59.11;99398.88;4982133;28;20030;-70
2020/12/30 05:15:37;;;;;;;27.23;11.23;;;;;;;1.16;60.28;99402.22;4997293;28;20487;-70
2020/12/30 05:18:07;;;;;;;30.83;12.48;;;;;;;1.69;59.11;99400.88;4965482;28;20037;-70
2020/12/30 05:20:36;;;;;;;26.40;10.90;;;;;;;1.34;60.07;99403.47;4975078;28;20065;-71
2020/12/30 05:23:08;;;;;;;24.50;11.52;;;;;;;1.80;59.00;99404.91;4997473;28;20026;-69
2020/12/30 05:25:41;;;;;;;23.23;11.48;;;;;;;1.43;60.18;99417.00;4982125;28;20046;-69
2020/12/30 05:28:12;;;;;;;28.80;12.20;;;;;;;1.32;59.60;99419.78;4987476;28;20034;-70
2020/12/30 05:30:40;;;;;;;25.83;11.43;;;;;;;1.46;59.91;99416.94;4973307;28;20044;-70
2020/12/30 05:33:06;;;;;;;25.17;11.40;;;;;;;1.65;59.54;99419.03;4988052;28;20080;-69
2020/12/30 05:35:32;;;;;;;24.50;11.90;;;;;;;0.65;61.79;99421.41;4985658;28;20038;-69
2020/12/30 05:37:58;;;;;;;29.17;12.02;;;;;;;1.37;60.19;99429.97;4989395;28;20088;-69
2020/12/30 05:40:29;;;;;;;25.25;11.23;;;;;;;2.16;58.24;99427.97;4999856;28;20027;-69
2020/12/30 05:43:09;;;;;;;25.17;11.15;;;;;;;1.54;59.74;99433.91;4995398;28;20041;-70
2020/12/30 05:45:47;;;;;;;26.45;11.68;;;;;;;1.63;59.23;99425.94;4971337;28;20034;-70
2020/12/30 05:48:13;;;;;;;26.70;13.05;;;;;;;1.70;59.59;99436.03;4985208;28;20030;-70
2020/12/30 05:50:54;;;;;;;30.60;11.48;;;;;;;1.22;61.42;99446.66;4973612;28;20044;-70
2020/12/30 05:53:20;;;;;;;26.40;11.80;;;;;;;1.42;60.53;99441.06;5001748;28;20144;-69
2020/12/30 05:55:48;;;;;;;25.05;11.70;;;;;;;1.62;59.69;99444.88;4996406;28;20611;-69
2020/12/30 05:58:16;;;;;;;31.88;12.70;;;;;;;1.65;59.35;99448.19;4980732;28;20101;-69
2020/12/30 06:00:42;;;;;;;27.42;11.35;;;;;;;1.42;60.35;99443.63;4974382;28;20527;-70
2020/12/30 06:03:08;;;;;;;26.55;10.88;;;;;;;2.11;57.90;99451.28;4978636;28;20033;-70
2020/12/30 06:05:34;;;;;;;22.98;10.60;;;;;;;1.08;60.95;99452.16;4957617;28;20264;-71
2020/12/30 06:08:00;;;;;;;33.55;11.98;;;;;;;1.57;59.53;99457.00;4971112;28;20030;-70
2020/12/30 06:10:27;;;;;;;19.33;10.60;;;;;;;2.14;58.03;99456.34;4991161;28;20040;-70
2020/12/30 06:12:54;;;;;;;28.63;12.15;;;;;;;1.68;59.26;99468.69;4994560;28;20037;-70
2020/12/30 06:15:33;;;;;;;21.73;10.48;;;;;;;1.49;59.94;99465.75;4985430;28;20110;-70
2020/12/30 06:18:05;;;;;;;28.55;11.80;;;;;;;1.57;59.67;99467.28;4970131;28;20041;-69
2020/12/30 06:20:33;;;;;;;;;;;;;;;1.22;60.32;99469.84;4998015;28;20026;-69
2020/12/30 06:23:02;;;;;;;24.67;9.90;;;;;;;1.49;59.67;99470.06;4997508;28;19930;-70
2020/12/30 06:25:35;;;;;;;26.98;12.05;;;;;;;1.60;59.64;99482.69;4996747;28;20039;-70
2020/12/30 06:28:34;;;;;;;23.92;11.00;;;;;;;1.88;58.71;99473.34;4970493;28;20040;-70
2020/12/30 06:31:02;;;;;;;24.40;11.07;;;;;;;1.79;59.13;99480.47;4942376;28;20149;-69
2020/12/30 06:33:27;;;;;;;25.42;10.73;;;;;;;2.05;58.24;99482.38;4986115;28;20030;-70
2020/12/30 06:35:55;;;;;;;24.70;10.48;;;;;;;2.04;58.15;99488.41;4981099;28;20096;-70
2020/12/30 06:38:31;;;;;;;23.15;10.63;;;;;;;1.72;59.41;99495.25;4998490;28;20476;-70
2020/12/30 06:40:57;;;;;;;22.92;10.85;;;;;;;1.19;60.62;99497.34;4995567;28;20038;-69
2020/12/30 06:43:39;;;;;;;28.48;12.50;;;;;;;1.65;59.66;99507.44;4987629;28;20098;-69
2020/12/30 06:46:05;;;;;;;27.00;10.93;;;;;;;1.64;60.25;99503.19;4967875;28;20467;-69
2020/12/30 06:48:53;;;;;;;25.35;10.90;;;;;;;1.81;59.39;99507.88;4989028;28;20098;-69
2020/12/30 06:51:19;;;;;;;20.77;10.65;;;;;;;1.96;58.92;99509.22;4962057;28;20038;-69
2020/12/30 06:53:57;;;;;;;26.17;12.02;;;;;;;1.65;59.84;99522.03;4994591;28;20042;-69
2020/12/30 06:56:44;;;;;;;27.85;12.65;;;;;;;1.79;59.74;99516.53;4993816;28;20049;-69
2020/12/30 06:59:16;;;;;;;25.92;11.32;;;;;;;1.11;60.87;99529.25;4953417;28;20049;-69
2020/12/30 07:02:00;;;;;;;22.65;10.43;;;;;;;1.30;60.59;99527.13;4978836;28;20117;-69
2020/12/30 07:04:27;;;;;;;28.88;11.07;;;;;;;1.94;58.83;99521.31;4995373;28;20501;-69
2020/12/30 07:06:53;;;;;;;25.52;11.25;;;;;;;1.93;58.92;99535.09;4980310;28;20053;-69
2020/12/30 07:09:32;;;;;;;23.70;10.60;;;;;;;1.99;59.14;99540.06;4979683;28;20318;-69
2020/12/30 07:12:05;;;;;;;24.67;10.02;;;;;;;1.97;59.20;99543.56;4967569;28;20085;-68
2020/12/30 07:14:32;;;;;;;26.35;11.80;;;;;;;2.42;57.58;99543.22;4979609;28;20034;-70
2020/12/30 07:16:59;;;;;;;24.73;10.32;;;;;;;1.51;59.56;99554.13;4979990;28;20044;-69
2020/12/30 07:19:28;;;;;;;25.48;10.32;;;;;;;2.05;58.47;99546.81;4979060;28;20614;-69
2020/12/30 07:22:06;;;;;;;22.23;9.25;;;;;;;1.82;59.49;99558.53;4986214;28;20026;-69
2020/12/30 07:24:56;;;;;;;24.38;9.55;;;;;;;2.30;58.08;99560.72;4971620;28;20065;-69
2020/12/30 07:27:26;;;;;;;26.63;11.13;;;;;;;2.75;56.94;99546.59;4978867;28;20034;-69
2020/12/30 07:29:51;;;;;;;19.95;10.07;;;;;;;2.33;57.68;99554.63;4997495;28;20031;-70
2020/12/30 07:32:18;;;;;;;25.17;9.20;;;;;;;2.24;58.24;99554.88;4978607;28;20034;-70
2020/12/30 07:34:52;;;;;;;22.10;9.50;;;;;;;2.18;58.40;99552.50;4997264;28;20120;-69
2020/12/30 07:37:18;;;;;;;21.65;10.10;;;;;;;1.89;58.53;99560.06;4967758;28;20031;-69
2020/12/30 07:39:46;;;;;;;17.08;8.75;;;;;;;1.96;59.00;99565.09;4963143;28;20038;-70
2020/12/30 07:42:17;;;;;;;18.42;8.90;;;;;;;2.48;57.36;99558.53;4956114;28;20030;-70
2020/12/30 07:44:48;;;;;;;23.65;9.57;;;;;;;2.40;57.40;99563.94;4982553;28;20042;-69
2020/12/30 07:47:14;;;;;;;17.98;8.35;;;;;;;1.75;59.87;99572.44;4998592;28;20496;-69
2020/12/30 07:49:40;;;;;;;29.95;10.45;;;;;;;1.55;60.03;99577.22;4994492;28;20030;-68
2020/12/30 07:52:06;;;;;;;22.67;8.68;;;;;;;2.21;58.55;99578.19;4982734;28;20034;-69
2020/12/30 07:54:33;;;;;;;22.30;8.65;;;;;;;2.16;58.74;99592.94;5003841;28;20032;-69
2020/12/30 07:57:07;;;;;;;18.63;8.75;;;;;;;2.48;57.37;99600.66;4986239;28;20026;-69
2020/12/30 07:59:33;;;;;;;18.42;8.20;;;;;;;2.02;59.06;99596.69;4963140;28;20030;-70
2020/12/30 08:02:05;;;;;;;18.52;9.18;;;;;;;2.33;58.30;99604.50;4981167;28;20034;-69
2020/12/30 08:04:33;;;;;;;21.30;8.30;;;;;;;1.87;59.36;99612.53;5001660;28;20034;-69
2020/12/30 08:07:02;;;;;;;17.52;8.68;;;;;;;1.59;59.96;99623.47;4985898;28;20495;-69
2020/12/30 08:09:32;;;;;;;21.52;8.10;;;;;;;2.61;57.48;99621.81;4999668;28;20369;-69
2020/12/30 08:12:00;;;;;;;18.40;9.45;;;;;;;2.35;58.06;99625.06;4999498;28;20233;-69
2020/12/30 08:14:28;;;;;;;23.95;9.75;;;;;;;1.85;59.96;99628.03;4984704;28;20038;-69
2020/12/30 08:17:01;;;;;;;15.95;7.82;;;;;;;2.00;59.59;99628.53;4964868;28;20038;-69
2020/12/30 08:19:31;;;;;;;18.98;8.38;;;;;;;2.08;59.67;99631.78;4999527;28;20049;-69
2020/12/30 08:22:05;;;;;;;22.42;8.75;;;;;;;1.93;59.43;99633.84;4982308;28;20040;-69
2020/12/30 08:24:32;;;;;;;17.80;7.43;;;;;;;1.88;60.22;99640.81;4974379;28;20258;-69
2020/12/30 08:26:59;;;;;;;21.27;7.88;;;;;;;1.47;61.38;99627.19;4968440;28;20558;-68
2020/12/30 08:29:36;;;;;;;18.40;8.05;;;;;;;2.22;58.88;99629.72;4982790;28;20042;-69
2020/12/30 08:32:06;;;;;;;17.45;8.52;;;;;;;1.88;59.74;99632.25;4998514;28;20502;-69
2020/12/30 08:34:41;;;;;;;19.35;8.73;;;;;;;2.14;59.33;99634.19;4983004;28;20033;-69
2020/12/30 08:37:14;;;;;;;21.77;7.88;;;;;;;2.02;59.30;99632.78;4972738;28;20048;-69
2020/12/30 08:39:45;;;;;;;17.88;7.82;;;;;;;2.04;59.59;99635.31;4980819;28;20030;-69
2020/12/30 08:42:32;;;;;;;18.35;7.85;;;;;;;2.08;59.17;99640.34;4970909;28;20065;-69
2020/12/30 08:45:02;;;;;;;17.83;7.85;;;;;;;1.80;60.22;99647.91;4994482;28;20030;-68
2020/12/30 08:47:30;;;;;;;23.20;10.52;;;;;;;2.02;59.07;99647.38;4980490;28;20053;-68
2020/12/30 08:49:58;;;;;;;25.23;10.70;;;;;;;1.29;60.97;99630.13;4998687;28;20041;-68
2020/12/30 08:52:24;;;;;;;29.25;11.57;;;;;;;1.83;59.81;99642.66;4977739;28;20042;-70
2020/12/30 08:55:00;;;;;;;26.35;10.57;;;;;;;1.09;62.50;99638.28;5009946;22;20049;-71
2020/12/30 08:57:26;;;;;;;22.85;9.02;;;;;;;1.32;61.59;99640.34;5023233;28;20056;-70
2020/12/30 08:59:51;;;;;;;25.73;9.90;;;;;;;1.78;60.33;99638.53;5026436;28;21681;-70
2020/12/30 09:02:17;;;;;;;17.63;8.48;;;;;;;2.01;59.80;99653.44;5020373;28;20463;-72
2020/12/30 09:04:54;;;;;;;22.88;10.80;;;;;;;1.98;59.84;99656.09;5014097;28;20086;-72
2020/12/30 09:07:25;;;;;;;19.33;9.05;;;;;;;1.91;59.11;99643.34;5011482;28;20029;-71
2020/12/30 09:10:03;;;;;;;17.83;8.55;;;;;;;1.99;59.67;99652.63;5012934;28;20026;-71
2020/12/30 09:12:28;;;;;;;19.17;9.50;;;;;;;1.92;59.78;99655.34;4995530;28;20045;-69
2020/12/30 09:14:54;;;;;;;22.27;9.70;;;;;;;1.49;61.10;99653.75;5006253;28;20399;-70
2020/12/30 09:17:19;;;;;;;19.58;11.23;;;;;;;1.88;60.32;99656.28;4995358;28;20065;-70
2020/12/30 09:19:45;;;;;;;21.42;10.10;;;;;;;1.88;59.85;99658.03;5001325;28;20030;-70
2020/12/30 09:22:11;;;;;;;19.80;10.80;;;;;;;2.45;58.75;99649.75;5009948;28;20483;-71
2020/12/30 09:24:39;;;;;;;23.35;9.80;;;;;;;2.49;58.16;99656.53;5004448;28;20114;-70
2020/12/30 09:27:21;;;;;;;17.08;8.60;;;;;;;1.88;59.75;99655.44;5010506;28;20060;-70
2020/12/30 09:30:10;;;;;;;19.25;9.32;;;;;;;2.27;58.53;99665.69;5008785;28;20129;-71
2020/12/30 09:32:36;;;;;;;21.65;10.32;;;;;;;1.74;60.23;99668.66;5004928;28;20073;-69
2020/12/30 09:35:06;;;;;;;18.90;9.18;;;;;;;2.00;59.66;99659.44;4996817;28;20041;-70
2020/12/30 09:37:32;;;;;;;18.58;9.10;;;;;;;1.58;60.94;99675.03;5007902;28;20491;-70
2020/12/30 09:40:08;;;;;;;18.60;9.05;;;;;;;1.10;61.40;99673.41;5014297;28;20041;-70
2020/12/30 09:42:34;;;;;;;22.20;10.75;;;;;;;1.73;60.26;99677.28;5010718;28;20145;-70
2020/12/30 09:45:11;;;;;;;17.70;9.48;;;;;;;1.66;60.24;99680.84;4991689;28;20021;-71
2020/12/30 09:47:38;;;;;;;21.20;10.25;;;;;;;0.98;62.19;99679.66;5011428;28;20118;-70
2020/12/30 09:50:05;;;;;;;21.65;10.80;;;;;;;1.94;60.10;99686.22;4996510;28;20519;-70
2020/12/30 09:52:48;;;;;;;19.95;10.20;;;;;;;1.78;60.56;99688.31;5009651;28;20037;-70
2020/12/30 09:55:14;;;;;;;21.58;10.02;;;;;;;1.82;60.21;99683.91;5009155;28;20093;-70
2020/12/30 09:57:41;;;;;;;20.45;9.57;;;;;;;2.12;59.37;99693.53;5004807;28;20316;-70
2020/12/30 10:00:09;;;;;;;20.38;8.90;;;;;;;2.09;59.21;99695.34;4993080;28;20520;-70
2020/12/30 10:02:34;;;;;;;22.38;10.15;;;;;;;2.24;58.93;99696.69;4985365;28;20042;-69
2020/12/30 10:05:00;;;;;;;21.30;10.80;;;;;;;2.19;59.43;99694.22;5005004;28;20114;-70
2020/12/30 10:07:26;;;;;;;20.60;9.70;;;;;;;2.15;58.80;99700.31;4978753;28;20718;-70
2020/12/30 10:09:53;;;;;;;20.05;10.10;;;;;;;1.89;59.97;99696.66;4987376;28;21004;-70
2020/12/30 10:12:22;;;;;;;19.33;9.30;;;;;;;1.72;60.42;99701.31;4987223;28;20483;-70
2020/12/30 10:14:48;;;;;;;19.92;9.20;;;;;;;1.88;59.94;99707.81;4988389;28;20075;-69
2020/12/30 10:17:13;;;;;;;22.23;9.40;;;;;;;0.95;63.02;99713.16;4996738;28;20116;-70
2020/12/30 10:19:39;;;;;;;20.27;10.15;;;;;;;1.72;60.73;99703.91;4996866;28;20034;-71
2020/12/30 10:22:09;;;;;;;18.60;8.90;;;;;;;0.71;62.58;99713.63;5000129;28;20602;-70
2020/12/30 10:24:36;;;;;;;16.35;8.45;;;;;;;1.80;60.31;99714.06;5008360;28;20045;-71
2020/12/30 10:27:02;;;;;;;18.33;8.45;;;;;;;1.91;59.81;99712.91;4988240;28;20041;-70
2020/12/30 10:29:31;;;;;;;24.50;9.43;;;;;;;2.01;59.43;99710.13;4989977;28;20045;-71
2020/12/30 10:31:58;;;;;;;18.38;8.20;;;;;;;1.83;59.86;99714.81;4988811;28;20406;-70
2020/12/30 10:34:24;;;;;;;18.73;8.38;;;;;;;1.55;61.72;99711.13;5018659;28;20034;-70
2020/12/30 10:36:50;;;;;;;16.67;7.35;;;;;;;1.96;60.00;99709.41;5008457;28;20040;-70
2020/12/30 10:39:15;;;;;;;17.77;7.80;;;;;;;2.58;58.47;99714.78;5011486;28;20535;-70
2020/12/30 10:41:41;;;;;;;16.60;7.10;;;;;;;2.76;57.63;99709.13;4987708;28;20212;-70
2020/12/30 10:44:07;;;;;;;18.80;8.20;;;;;;;3.08;56.94;99712.56;5008090;28;20030;-70
2020/12/30 10:46:32;;;;;;;16.45;8.98;;;;;;;2.19;58.76;99714.84;5003888;28;20030;-70
2020/12/30 10:48:58;;;;;;;13.95;6.97;;;;;;;2.36;58.61;99714.44;4992919;28;20049;-70
2020/12/30 10:51:24;;;;;;;20.92;8.73;;;;;;;2.46;58.10;99709.91;4990792;28;20402;-70
2020/12/30 10:53:50;;;;;;;21.52;8.93;;;;;;;2.79;57.93;99718.50;4989139;28;20034;-70
2020/12/30 10:56:15;;;;;;;22.25;9.35;;;;;;;1.95;60.24;99724.00;4993152;28;20030;-70
2020/12/30 10:58:41;;;;;;;20.33;9.48;;;;;;;1.86;60.67;99719.03;4989897;28;20117;-72
2020/12/30 11:01:07;;;;;;;15.98;7.18;;;;;;;2.51;58.09;99713.19;5007681;28;20041;-70
2020/12/30 11:03:33;;;;;;;16.77;8.85;;;;;;;1.94;59.73;99718.00;5006658;28;20049;-70
2020/12/30 11:05:59;;;;;;;18.45;8.60;;;;;;;2.29;58.85;99718.91;4989094;28;20030;-71
2020/12/30 11:08:26;;;;;;;21.00;10.05;;;;;;;2.43;58.33;99723.72;4986412;28;20130;-70
2020/12/30 11:10:51;;;;;;;18.10;9.43;;;;;;;2.59;58.20;99721.59;4994981;28;20041;-70
2020/12/30 11:13:17;;;;;;;19.50;8.95;;;;;;;2.61;58.03;99724.16;4984788;28;20030;-71
2020/12/30 11:15:42;;;;;;;25.20;10.68;;;;;;;2.13;59.81;99721.00;5001565;28;20042;-70
2020/12/30 11:18:08;;;;;;;19.95;9.63;;;;;;;2.55;57.93;99722.56;5004866;28;20034;-71
2020/12/30 11:20:33;;;;;;;20.73;10.50;;;;;;;1.93;60.35;99720.63;5003413;28;20673;-71
2020/12/30 11:22:59;;;;;;;20.00;10.95;;;;;;;2.43;58.48;99716.00;5000032;28;20184;-71
2020/12/30 11:25:24;;;;;;;18.73;9.73;;;;;;;1.89;60.29;99726.72;5002625;28;20042;-71
2020/12/30 11:27:51;;;;;;;19.27;9.05;;;;;;;2.08;60.07;99724.56;5001864;28;20038;-71
2020/12/30 11:30:19;;;;;;;21.85;9.13;;;;;;;2.60;57.61;99718.16;5008724;28;20685;-71
2020/12/30 11:32:44;;;;;;;19.67;8.95;;;;;;;2.68;57.94;99725.69;5010094;28;20038;-71
2020/12/30 11:35:11;;;;;;;20.73;9.82;;;;;;;2.69;57.78;99724.78;4982827;28;20049;-70